LGAVLGLM

Guest
Details From LGAV - Athens Intl Airport Elefterios Venizel
To LGLM - Limnos
Flight Number -
Tags decoded
Created
Modified
Stats Distance 142 nm / 263 km
Max Altitude 0 ft / 0 m
Waypoints 4
Social Downloads 1
Likes 0
Share VATSIM

Download

Looking for another format? Having issues loading an existing format? Contact us
Advertisement - Login to hide

Notes

Requested: LGAV NEVRA UG33 KOROS LGLM

Route

LGAV NEVRA UG33 KOROS LGLM

ID Type Via Altitude Latitude Longitude Leg Dist Tot Dist Heading (true) Name
O LGAV APT - 0 ft / 0 m 37.93636˚ 23.94447˚ - 0 nm - Athens Intl Airport Elefterios Venizel
NEVRA FIX - 0 ft / 0 m 38.16833˚ 24.56028˚ 32 nm 32 nm 64° / 65° -
KOROS FIX UG33 (AWY-HI) 0 ft / 0 m 39.09972˚ 24.91583˚ 58 nm 90 nm 16° / 17° -
O LGLM APT - 0 ft / 0 m 39.91703˚ 25.23635˚ 51 nm 141 nm 17° / 17° Limnos

Altitude Profile

Advertisement - Login to hide

LGAV

Details ICAO LGAV (ATH)
Name Athens Intl Airport Elefterios Venizel
Region Greece
Timezone Europe/Athens (UTC+2.0)
Stats Elevation 308 ft / 94 m (AMSL)
Location 37.936357° 23.944470°
Runways 2
Magnetic Variation 4.484° E

METAR

LGAV 150020Z 26005KT 180V350 9999 FEW035 13/05 Q1015 NOSIG

Decode

TAF

TAF TAF LGAV 142300Z 1500/1524 25010KT 9999 FEW025 BECMG 1500/1502 VRB05KT BECMG 1509/1511 23012KT BECMG 1518/1520 23012G22KT FEW020 BKN070

Decode

Departure Runways

ID Width Length Bearing (true) Bearing (mag) Surface Threshold Offset Overrun Length
03L 148 ft / 45 m 12,474 ft / 3,802 m 36.51° 32.03° Asphalt 984 ft / 300 m 393 ft / 120 m
03R 148 ft / 45 m 13,131 ft / 4,002 m 36.52° 32.04° Asphalt 984 ft / 300 m 393 ft / 120 m
21L 148 ft / 45 m 13,131 ft / 4,002 m 216.54° 212.06° Asphalt 984 ft / 300 m 393 ft / 120 m
21R 148 ft / 45 m 12,474 ft / 3,802 m 216.53° 212.05° Asphalt 984 ft / 300 m 393 ft / 120 m

LGLM

Details ICAO LGLM (LXS)
Name Limnos
Region Greece
Timezone Europe/Athens (UTC+2.0)
Stats Elevation 14 ft / 4 m (AMSL)
Location 39.917028° 25.236348°
Runways 1
Magnetic Variation 4.857° E

METAR

LGLM 150020Z AUTO VRB01KT //// // ////// 08/07 Q1013 RE//

Decode

TAF

Not found

Destination Runways

ID Width Length Bearing (true) Bearing (mag) Surface Threshold Offset Overrun Length
04R 148 ft / 45 m 9,842 ft / 3,000 m 43.04° 38.18° Asphalt 0 ft / 0 m 920 ft / 280 m
22L 148 ft / 45 m 9,842 ft / 3,000 m 223.05° 218.19° Asphalt 0 ft / 0 m 920 ft / 280 m

Popular Alternatives